createdAt,value
2023-02-05T00:01:16.700Z,102648.70
2023-02-05T00:03:45.320Z,102647.02
2023-02-05T00:06:14.005Z,102649.75
2023-02-05T00:08:42.530Z,102655.67
2023-02-05T00:11:11.029Z,102659.25
2023-02-05T00:13:42.296Z,102660.70
2023-02-05T00:16:13.725Z,102661.17
2023-02-05T00:18:42.573Z,102659.73
2023-02-05T00:21:12.532Z,102665.10
2023-02-05T00:23:41.471Z,102668.90
2023-02-05T00:26:14.572Z,102670.01
2023-02-05T00:28:43.691Z,102672.88
2023-02-05T00:31:18.426Z,102669.30
2023-02-05T00:33:48.246Z,102666.99
2023-02-05T00:36:18.544Z,102667.73
2023-02-05T00:38:48.015Z,102666.93
2023-02-05T00:41:17.673Z,102667.88
2023-02-05T00:43:46.936Z,102663.28
2023-02-05T00:46:15.924Z,102663.70
2023-02-05T00:48:45.076Z,102665.67
2023-02-05T00:51:13.626Z,102665.60
2023-02-05T00:53:42.072Z,102668.92
2023-02-05T00:56:10.763Z,102671.77
2023-02-05T00:58:39.482Z,102668.89
2023-02-05T01:01:08.185Z,102671.21
2023-02-05T01:03:36.834Z,102672.56
2023-02-05T01:06:06.879Z,102668.91
2023-02-05T01:08:35.738Z,102668.42
2023-02-05T01:11:09.061Z,102669.69
2023-02-05T01:13:38.737Z,102672.89
2023-02-05T01:16:08.431Z,102668.10
2023-02-05T01:18:37.058Z,102662.89
2023-02-05T01:21:06.298Z,102658.38
2023-02-05T01:23:34.948Z,102661.83
2023-02-05T01:26:03.407Z,102660.60
2023-02-05T01:28:31.970Z,102661.75
2023-02-05T01:31:00.556Z,102660.00
2023-02-05T01:33:29.178Z,102657.45
2023-02-05T01:35:57.591Z,102656.20
2023-02-05T01:38:26.207Z,102650.59
2023-02-05T01:40:54.638Z,102648.07
2023-02-05T01:43:23.098Z,102651.09
2023-02-05T01:46:06.043Z,102645.88
2023-02-05T01:48:40.952Z,102647.60
2023-02-05T01:51:12.321Z,102644.81
2023-02-05T01:53:43.140Z,102646.73
2023-02-05T01:56:31.185Z,102646.77
2023-02-05T01:59:15.408Z,102650.08
2023-02-05T02:01:44.729Z,102651.91
2023-02-05T02:04:21.191Z,102655.72
2023-02-05T02:06:49.734Z,102654.40
2023-02-05T02:09:18.265Z,102652.93
2023-02-05T02:11:47.008Z,102651.23
2023-02-05T02:14:16.453Z,102650.14
2023-02-05T02:16:45.200Z,102657.23
2023-02-05T02:19:26.683Z,102653.50
2023-02-05T02:22:25.431Z,102646.13
2023-02-05T02:25:15.580Z,102646.64
2023-02-05T02:27:55.009Z,102648.36
2023-02-05T02:30:52.554Z,102644.35
2023-02-05T02:33:29.158Z,102640.74
2023-02-05T02:36:15.686Z,102642.48
2023-02-05T02:39:08.451Z,102642.75
2023-02-05T02:41:44.539Z,102636.52
2023-02-05T02:44:19.709Z,102629.30
2023-02-05T02:46:59.374Z,102628.79
2023-02-05T02:49:34.533Z,102632.66
2023-02-05T02:52:07.022Z,102639.11
2023-02-05T02:54:37.452Z,102644.53
2023-02-05T02:57:08.869Z,102640.81
2023-02-05T02:59:41.011Z,102641.54
2023-02-05T03:02:13.205Z,102639.64
2023-02-05T03:04:46.833Z,102636.96
2023-02-05T03:07:22.574Z,102637.25
2023-02-05T03:09:57.003Z,102638.43
2023-02-05T03:12:25.500Z,102640.88
2023-02-05T03:14:54.499Z,102640.79
2023-02-05T03:17:24.944Z,102636.85
2023-02-05T03:20:03.246Z,102639.56
2023-02-05T03:22:31.906Z,102645.59
2023-02-05T03:25:02.767Z,102643.90
2023-02-05T03:27:33.074Z,102643.05
2023-02-05T03:30:02.702Z,102647.39
2023-02-05T03:32:58.827Z,102645.73
2023-02-05T03:35:43.621Z,102644.23
2023-02-05T03:38:40.173Z,102638.89
2023-02-05T03:41:21.085Z,102635.11
2023-02-05T03:44:06.672Z,102635.45
2023-02-05T03:47:09.893Z,102637.97
2023-02-05T03:49:53.144Z,102636.15
2023-02-05T03:52:32.878Z,102636.67
2023-02-05T03:55:20.233Z,102638.10
2023-02-05T03:58:09.138Z,102641.86
2023-02-05T04:00:38.386Z,102646.73
2023-02-05T04:03:07.444Z,102645.59
2023-02-05T04:05:36.809Z,102651.67
2023-02-05T04:08:06.038Z,102653.36
2023-02-05T04:10:39.008Z,102654.97
2023-02-05T04:13:07.630Z,102654.40
2023-02-05T04:15:36.724Z,102649.58
2023-02-05T04:18:08.567Z,102649.97
2023-02-05T04:20:37.082Z,102647.76
2023-02-05T04:23:05.892Z,102650.27
2023-02-05T04:25:37.542Z,102654.73
2023-02-05T04:28:08.447Z,102655.85
2023-02-05T04:30:37.512Z,102656.67
2023-02-05T04:33:06.217Z,102656.23
2023-02-05T04:35:35.635Z,102656.62
2023-02-05T04:38:04.615Z,102656.34
2023-02-05T04:40:33.380Z,102657.76
2023-02-05T04:43:01.875Z,102654.80
2023-02-05T04:45:31.615Z,102658.11
2023-02-05T04:48:01.008Z,102656.79
2023-02-05T04:50:29.446Z,102656.63
2023-02-05T04:52:58.024Z,102660.86
2023-02-05T04:55:26.586Z,102664.70
2023-02-05T04:57:55.156Z,102662.65
2023-02-05T05:00:24.424Z,102662.20
2023-02-05T05:02:53.492Z,102664.02
2023-02-05T05:05:22.186Z,102671.39
2023-02-05T05:07:50.679Z,102673.68
2023-02-05T05:10:19.332Z,102674.06
2023-02-05T05:12:47.785Z,102678.41
2023-02-05T05:15:17.013Z,102686.83
2023-02-05T05:17:45.445Z,102689.48
2023-02-05T05:20:13.923Z,102690.28
2023-02-05T05:22:42.373Z,102687.92
2023-02-05T05:25:11.010Z,102686.61
2023-02-05T05:27:39.458Z,102684.83
2023-02-05T05:30:08.934Z,102680.80
2023-02-05T05:32:37.446Z,102681.77
2023-02-05T05:35:06.731Z,102685.98
2023-02-05T05:37:35.111Z,102690.98
2023-02-05T05:40:22.235Z,102694.14
2023-02-05T05:43:09.197Z,102698.64
2023-02-05T05:45:37.624Z,102697.92
2023-02-05T05:48:06.191Z,102699.28
2023-02-05T05:50:34.730Z,102703.25
2023-02-05T05:53:03.607Z,102705.69
2023-02-05T05:55:32.251Z,102708.11
2023-02-05T05:58:01.102Z,102712.45
2023-02-05T06:00:29.691Z,102712.11
2023-02-05T06:02:58.212Z,102713.08
2023-02-05T06:05:27.363Z,102712.66
2023-02-05T06:07:55.782Z,102708.96
2023-02-05T06:10:24.871Z,102708.88
2023-02-05T06:12:53.324Z,102708.43
2023-02-05T06:15:22.449Z,102709.30
2023-02-05T06:17:50.823Z,102709.85
2023-02-05T06:20:19.476Z,102710.98
2023-02-05T06:22:48.066Z,102709.48
2023-02-05T06:25:16.605Z,102713.08
2023-02-05T06:27:45.172Z,102709.33
2023-02-05T06:30:13.915Z,102715.11
2023-02-05T06:32:42.343Z,102710.66
2023-02-05T06:35:10.938Z,102710.27
2023-02-05T06:37:47.030Z,102716.70
2023-02-05T06:40:18.455Z,102712.11
2023-02-05T06:42:47.125Z,102715.93
2023-02-05T06:45:15.697Z,102726.45
2023-02-05T06:47:44.298Z,102731.17
2023-02-05T06:50:13.194Z,102739.55
2023-02-05T06:52:41.641Z,102748.11
2023-02-05T06:55:10.344Z,102754.61
2023-02-05T06:57:38.787Z,102758.59
2023-02-05T07:00:08.536Z,102764.67
2023-02-05T07:02:37.213Z,102770.62
2023-02-05T07:05:06.416Z,102770.68
2023-02-05T07:07:35.279Z,102770.21
2023-02-05T07:10:04.653Z,102767.77
2023-02-05T07:12:33.214Z,102770.55
2023-02-05T07:15:01.712Z,102768.75
2023-02-05T07:17:30.163Z,102771.26
2023-02-05T07:19:59.093Z,102774.02
2023-02-05T07:22:27.736Z,102779.42
2023-02-05T07:24:56.249Z,102774.86
2023-02-05T07:27:24.842Z,102778.34
2023-02-05T07:29:53.547Z,102780.55
2023-02-05T07:32:22.049Z,102784.82
2023-02-05T07:34:50.600Z,102791.94
2023-02-05T07:37:21.279Z,102791.84
2023-02-05T07:39:50.067Z,102793.67
2023-02-05T07:42:18.604Z,102791.33
2023-02-05T07:44:50.712Z,102789.86
2023-02-05T07:47:19.115Z,102784.02
2023-02-05T07:49:47.623Z,102783.95
2023-02-05T07:52:16.062Z,102781.48
2023-02-05T07:54:44.511Z,102786.61
2023-02-05T07:57:13.008Z,102793.13
2023-02-05T07:59:41.425Z,102801.83
2023-02-05T08:02:11.792Z,102798.80
2023-02-05T08:04:40.483Z,102799.66
2023-02-05T08:07:12.847Z,102799.27
2023-02-05T08:09:41.510Z,102800.14
2023-02-05T08:12:10.099Z,102807.45
2023-02-05T08:14:38.534Z,102809.23
2023-02-05T08:17:07.100Z,102811.95
2023-02-05T08:19:35.676Z,102811.83
2023-02-05T08:22:04.136Z,102814.24
2023-02-05T08:24:32.913Z,102810.29
2023-02-05T08:27:01.439Z,102809.01
2023-02-05T08:29:29.900Z,102808.17
2023-02-05T08:31:58.633Z,102805.27
2023-02-05T08:34:27.144Z,102808.63
2023-02-05T08:36:57.538Z,102804.35
2023-02-05T08:39:26.403Z,102803.30
2023-02-05T08:41:56.965Z,102797.63
2023-02-05T08:44:25.820Z,102789.05
2023-02-05T08:46:54.487Z,102789.20
2023-02-05T08:49:22.917Z,102789.52
2023-02-05T08:51:51.742Z,102785.71
2023-02-05T08:54:20.817Z,102780.00
2023-02-05T08:56:51.334Z,102777.66
2023-02-05T08:59:20.730Z,102775.34
2023-02-05T09:01:49.679Z,102769.16
2023-02-05T09:04:22.459Z,102775.17
2023-02-05T09:06:51.841Z,102778.51
2023-02-05T09:09:20.923Z,102776.55
2023-02-05T09:11:50.032Z,102776.30
2023-02-05T09:14:19.847Z,102778.54
2023-02-05T09:16:48.503Z,102780.91
2023-02-05T09:19:16.937Z,102779.88
2023-02-05T09:21:45.438Z,102780.46
2023-02-05T09:24:13.823Z,102783.95
2023-02-05T09:26:42.349Z,102789.77
2023-02-05T09:29:10.795Z,102789.70
2023-02-05T09:31:41.666Z,102790.10
2023-02-05T09:34:10.462Z,102784.80
2023-02-05T09:36:40.791Z,102785.65
2023-02-05T09:39:18.507Z,102788.67
2023-02-05T09:42:07.644Z,102785.98
2023-02-05T09:44:51.252Z,102782.20
2023-02-05T09:48:01.332Z,102780.67
2023-02-05T09:50:31.128Z,102773.77
2023-02-05T09:53:08.689Z,102773.55
2023-02-05T09:55:41.719Z,102776.04
2023-02-05T09:58:27.604Z,102785.55
2023-02-05T10:01:06.786Z,102788.06
2023-02-05T10:03:45.555Z,102791.79
2023-02-05T10:06:27.248Z,102789.64
2023-02-05T10:09:33.477Z,102786.48
2023-02-05T10:12:10.705Z,102781.40
2023-02-05T10:15:03.323Z,102780.95
2023-02-05T10:17:52.926Z,102783.16
2023-02-05T10:20:24.167Z,102781.41
2023-02-05T10:23:14.879Z,102779.77
2023-02-05T10:26:12.666Z,102776.23
2023-02-05T10:29:01.602Z,102774.71
2023-02-05T10:31:50.738Z,102771.80
2023-02-05T10:34:49.031Z,102772.56
2023-02-05T10:37:20.433Z,102764.35
2023-02-05T10:39:49.913Z,102762.89
2023-02-05T10:42:47.010Z,102762.66
2023-02-05T10:45:21.686Z,102763.75
2023-02-05T10:48:17.969Z,102758.92
2023-02-05T10:51:05.610Z,102755.90
2023-02-05T10:53:36.498Z,102746.54
2023-02-05T10:56:06.326Z,102748.27
2023-02-05T10:58:41.518Z,102745.47
2023-02-05T11:01:18.949Z,102740.49
2023-02-05T11:03:59.623Z,102742.66
2023-02-05T11:06:32.948Z,102740.97
2023-02-05T11:09:01.851Z,102735.20
2023-02-05T11:11:32.377Z,102736.10
2023-02-05T11:14:05.063Z,102732.15
2023-02-05T11:16:41.531Z,102736.67
2023-02-05T11:19:25.846Z,102737.83
2023-02-05T11:22:00.417Z,102737.07
2023-02-05T11:24:39.640Z,102739.23
2023-02-05T11:27:30.949Z,102733.60
2023-02-05T11:30:48.000Z,102730.85
2023-02-05T11:33:23.375Z,102723.97
2023-02-05T11:36:08.419Z,102717.57
2023-02-05T11:38:43.240Z,102713.95
2023-02-05T11:41:15.152Z,102715.08
2023-02-05T11:43:50.954Z,102717.27
2023-02-05T11:46:23.261Z,102713.61
2023-02-05T11:49:05.318Z,102710.46
2023-02-05T11:51:36.932Z,102709.45
2023-02-05T11:54:20.760Z,102711.11
2023-02-05T11:57:30.026Z,102717.27
2023-02-05T11:59:58.452Z,102713.13
2023-02-05T12:02:29.554Z,102712.92
2023-02-05T12:05:24.677Z,102714.52
2023-02-05T12:07:58.476Z,102705.89
2023-02-05T12:10:51.738Z,102710.32
2023-02-05T12:13:31.690Z,102710.41
2023-02-05T12:16:26.470Z,102710.77
2023-02-05T12:19:20.619Z,102709.40
2023-02-05T12:21:51.836Z,102711.02
2023-02-05T12:24:38.581Z,102706.75
2023-02-05T12:27:47.537Z,102709.45
2023-02-05T12:30:28.181Z,102712.34
2023-02-05T12:33:30.699Z,102716.10
2023-02-05T12:36:18.027Z,102719.08
2023-02-05T12:39:44.734Z,102718.85
2023-02-05T12:42:24.803Z,102721.00
2023-02-05T12:45:23.311Z,102721.65
2023-02-05T12:48:10.577Z,102718.86
2023-02-05T12:51:03.745Z,102717.78
2023-02-05T12:53:40.356Z,102708.89
2023-02-05T12:56:11.785Z,102703.56
2023-02-05T12:58:46.685Z,102701.83
2023-02-05T13:01:21.608Z,102707.16
2023-02-05T13:04:01.165Z,102708.45
2023-02-05T13:06:37.873Z,102701.89
2023-02-05T13:09:18.937Z,102699.52
2023-02-05T13:11:56.989Z,102701.21
2023-02-05T13:14:49.159Z,102693.09
2023-02-05T13:17:22.780Z,102693.42
2023-02-05T13:21:10.888Z,102687.95
2023-02-05T13:24:01.810Z,102688.05
2023-02-05T13:26:58.164Z,102690.08
2023-02-05T13:29:35.459Z,102693.88
2023-02-05T13:32:15.836Z,102688.84
2023-02-05T13:34:44.949Z,102693.45
2023-02-05T13:37:30.072Z,102692.53
2023-02-05T13:40:19.679Z,102695.73
2023-02-05T13:43:03.260Z,102689.10
2023-02-05T13:45:59.957Z,102682.35
2023-02-05T13:48:49.832Z,102684.14
2023-02-05T13:51:56.368Z,102685.29
2023-02-05T13:55:05.113Z,102691.13
2023-02-05T13:57:33.507Z,102694.39
2023-02-05T14:00:05.247Z,102692.48
2023-02-05T14:02:49.722Z,102699.59
2023-02-05T14:05:32.645Z,102709.14
2023-02-05T14:08:03.451Z,102702.75
2023-02-05T14:10:42.388Z,102697.75
2023-02-05T14:13:19.787Z,102696.05
2023-02-05T14:15:49.232Z,102689.79
2023-02-05T14:18:40.240Z,102686.89
2023-02-05T14:21:30.365Z,102694.37
2023-02-05T14:24:00.287Z,102694.02
2023-02-05T14:26:52.011Z,102695.94
2023-02-05T14:29:49.921Z,102705.73
2023-02-05T14:32:27.720Z,102710.52
2023-02-05T14:35:26.402Z,102709.98
2023-02-05T14:38:02.760Z,102713.96
2023-02-05T14:40:36.023Z,102714.23
2023-02-05T14:43:22.735Z,102714.60
2023-02-05T14:45:53.318Z,102709.30
2023-02-05T14:48:32.958Z,102710.84
2023-02-05T14:51:19.429Z,102720.27
2023-02-05T14:53:58.015Z,102716.98
2023-02-05T14:56:35.023Z,102717.63
2023-02-05T14:59:29.436Z,102723.27
2023-02-05T15:02:00.116Z,102729.77
2023-02-05T15:04:35.261Z,102732.02
2023-02-05T15:07:18.388Z,102733.36
2023-02-05T15:10:07.627Z,102732.98
2023-02-05T15:12:55.264Z,102726.85
2023-02-05T15:15:49.551Z,102728.29
2023-02-05T15:18:27.738Z,102719.26
2023-02-05T15:20:57.880Z,102723.39
2023-02-05T15:23:46.677Z,102723.14
2023-02-05T15:26:28.124Z,102728.28
2023-02-05T15:29:03.644Z,102732.30
2023-02-05T15:31:54.955Z,102733.20
2023-02-05T15:34:35.270Z,102733.11
2023-02-05T15:37:09.797Z,102736.16
2023-02-05T15:39:51.793Z,102731.96
2023-02-05T15:42:33.110Z,102727.45
2023-02-05T15:45:45.152Z,102729.52
2023-02-05T15:48:19.577Z,102728.45
2023-02-05T15:50:52.253Z,102726.34
2023-02-05T15:53:41.878Z,102734.97
2023-02-05T15:56:27.653Z,102738.36
2023-02-05T15:59:01.173Z,102737.11
2023-02-05T16:01:34.470Z,102733.67
2023-02-05T16:04:21.063Z,102741.77
2023-02-05T16:06:50.215Z,102743.44
2023-02-05T16:09:21.149Z,102738.95
2023-02-05T16:11:50.582Z,102747.12
2023-02-05T16:14:28.666Z,102749.48
2023-02-05T16:17:11.329Z,102751.63
2023-02-05T16:19:48.504Z,102742.65
2023-02-05T16:22:24.425Z,102738.04
2023-02-05T16:24:58.461Z,102739.17
2023-02-05T16:27:38.060Z,102738.58
2023-02-05T16:30:17.486Z,102739.45
2023-02-05T16:32:48.519Z,102751.21
2023-02-05T16:35:27.143Z,102758.88
2023-02-05T16:37:57.414Z,102746.13
2023-02-05T16:40:46.829Z,102742.58
2023-02-05T16:43:38.403Z,102739.80
2023-02-05T16:46:06.984Z,102740.91
2023-02-05T16:48:38.985Z,102740.86
2023-02-05T16:51:34.208Z,102739.68
2023-02-05T16:54:25.995Z,102730.53
2023-02-05T16:57:06.755Z,102731.65
2023-02-05T17:00:19.253Z,102735.39
2023-02-05T17:02:47.792Z,102732.45
2023-02-05T17:05:26.992Z,102735.98
2023-02-05T17:08:10.306Z,102726.58
2023-02-05T17:10:54.219Z,102727.39
2023-02-05T17:13:49.313Z,102737.30
2023-02-05T17:16:27.495Z,102749.20
2023-02-05T17:19:01.090Z,102749.89
2023-02-05T17:21:34.669Z,102753.88
2023-02-05T17:24:09.287Z,102758.44
2023-02-05T17:26:41.161Z,102764.78
2023-02-05T17:29:16.018Z,102772.39
2023-02-05T17:31:44.619Z,102775.39
2023-02-05T17:34:13.349Z,102777.56
2023-02-05T17:36:41.835Z,102778.39
2023-02-05T17:39:10.361Z,102780.98
2023-02-05T17:41:57.299Z,102785.23
2023-02-05T17:44:25.743Z,102778.65
2023-02-05T17:46:54.372Z,102775.42
2023-02-05T17:49:23.177Z,102773.90
2023-02-05T17:51:51.715Z,102774.75
2023-02-05T17:54:23.269Z,102766.98
2023-02-05T17:56:57.021Z,102768.44
2023-02-05T17:59:26.303Z,102770.19
2023-02-05T18:01:54.795Z,102762.98
2023-02-05T18:04:23.306Z,102763.70
2023-02-05T18:06:52.084Z,102769.01
2023-02-05T18:09:20.650Z,102772.10
2023-02-05T18:11:49.451Z,102771.39
2023-02-05T18:14:18.027Z,102780.69
2023-02-05T18:16:46.801Z,102785.17
2023-02-05T18:19:15.306Z,102785.16
2023-02-05T18:21:46.406Z,102783.63
2023-02-05T18:24:15.375Z,102782.49
2023-02-05T18:26:44.230Z,102786.42
2023-02-05T18:29:12.687Z,102794.34
2023-02-05T18:31:41.190Z,102791.94
2023-02-05T18:34:09.903Z,102800.69
2023-02-05T18:36:38.451Z,102806.98
2023-02-05T18:39:06.987Z,102807.69
2023-02-05T18:41:35.580Z,102811.00
2023-02-05T18:44:04.202Z,102812.08
2023-02-05T18:46:32.607Z,102815.21
2023-02-05T18:49:01.407Z,102815.56
2023-02-05T18:51:29.946Z,102811.52
2023-02-05T18:53:59.133Z,102806.41
2023-02-05T18:56:30.097Z,102809.30
2023-02-05T18:59:03.269Z,102819.92
2023-02-05T19:01:38.475Z,102825.09
2023-02-05T19:04:10.251Z,102830.29
2023-02-05T19:06:42.066Z,102838.33
2023-02-05T19:09:11.597Z,102839.23
2023-02-05T19:11:41.767Z,102838.35
2023-02-05T19:14:16.765Z,102845.98
2023-02-05T19:16:45.692Z,102846.64
2023-02-05T19:19:21.244Z,102845.09
2023-02-05T19:21:54.960Z,102845.58
2023-02-05T19:24:23.840Z,102845.73
2023-02-05T19:26:56.687Z,102848.42
2023-02-05T19:29:26.506Z,102847.45
2023-02-05T19:31:55.136Z,102846.73
2023-02-05T19:34:24.282Z,102845.31
2023-02-05T19:36:52.710Z,102840.98
2023-02-05T19:39:21.145Z,102835.23
2023-02-05T19:41:51.582Z,102838.36
2023-02-05T19:44:20.492Z,102835.98
2023-02-05T19:46:49.045Z,102832.55
2023-02-05T19:49:22.230Z,102835.12
2023-02-05T19:51:54.623Z,102839.20
2023-02-05T19:54:24.086Z,102844.56
2023-02-05T19:56:52.816Z,102846.23
2023-02-05T19:59:21.475Z,102848.91
2023-02-05T20:01:50.258Z,102851.70
2023-02-05T20:04:22.683Z,102849.35
2023-02-05T20:06:56.351Z,102844.47
2023-02-05T20:09:26.342Z,102842.67
2023-02-05T20:11:55.973Z,102846.21
2023-02-05T20:14:25.065Z,102849.86
2023-02-05T20:16:54.105Z,102852.70
2023-02-05T20:19:22.625Z,102852.80
2023-02-05T20:21:51.458Z,102851.69
2023-02-05T20:24:19.933Z,102854.88
2023-02-05T20:26:48.740Z,102853.39
2023-02-05T20:29:36.355Z,102853.63
2023-02-05T20:32:05.843Z,102853.39
2023-02-05T20:34:36.353Z,102854.58
2023-02-05T20:37:09.284Z,102851.87
2023-02-05T20:39:42.847Z,102858.15
2023-02-05T20:42:15.418Z,102852.85
2023-02-05T20:44:44.582Z,102852.39
2023-02-05T20:47:14.759Z,102853.99
2023-02-05T20:49:43.739Z,102856.67
2023-02-05T20:52:12.559Z,102857.52
2023-02-05T20:54:41.195Z,102857.30
2023-02-05T20:57:09.690Z,102854.98
2023-02-05T20:59:38.861Z,102860.39
2023-02-05T21:02:08.004Z,102869.30
2023-02-05T21:04:37.809Z,102862.27
2023-02-05T21:07:06.388Z,102855.16
2023-02-05T21:09:35.160Z,102855.52
2023-02-05T21:12:03.789Z,102859.64
2023-02-05T21:14:32.424Z,102863.42
2023-02-05T21:17:00.889Z,102862.16
2023-02-05T21:19:29.384Z,102865.54
2023-02-05T21:21:57.981Z,102865.27
2023-02-05T21:24:26.416Z,102870.05
2023-02-05T21:26:54.924Z,102879.90
2023-02-05T21:29:23.627Z,102884.20
2023-02-05T21:31:55.977Z,102889.70
2023-02-05T21:34:27.901Z,102895.04
2023-02-05T21:36:56.845Z,102894.91
2023-02-05T21:39:25.769Z,102896.95
2023-02-05T21:41:55.039Z,102897.53
2023-02-05T21:44:24.450Z,102898.75
2023-02-05T21:46:54.923Z,102890.60
2023-02-05T21:49:23.333Z,102878.75
2023-02-05T21:51:53.543Z,102872.73
2023-02-05T21:54:25.917Z,102868.11
2023-02-05T21:56:54.716Z,102872.39
2023-02-05T21:59:23.825Z,102877.99
2023-02-05T22:01:52.358Z,102871.85
2023-02-05T22:04:21.103Z,102866.61
2023-02-05T22:06:50.988Z,102871.22
2023-02-05T22:09:19.554Z,102873.79
2023-02-05T22:11:51.397Z,102872.50
2023-02-05T22:14:19.935Z,102873.15
2023-02-05T22:16:48.559Z,102879.30
2023-02-05T22:19:17.077Z,102889.15
2023-02-05T22:21:45.612Z,102887.79
2023-02-05T22:24:16.387Z,102898.46
2023-02-05T22:26:46.625Z,102905.54
2023-02-05T22:29:18.493Z,102900.59
2023-02-05T22:31:54.567Z,102895.02
2023-02-05T22:34:23.350Z,102889.38
2023-02-05T22:36:51.786Z,102887.08
2023-02-05T22:39:20.364Z,102885.20
2023-02-05T22:41:49.098Z,102894.98
2023-02-05T22:44:17.642Z,102906.97
2023-02-05T22:46:46.056Z,102913.32
2023-02-05T22:49:17.503Z,102916.91
2023-02-05T22:51:46.346Z,102912.98
2023-02-05T22:54:15.524Z,102915.72
2023-02-05T22:56:45.002Z,102915.13
2023-02-05T22:59:13.750Z,102908.79
2023-02-05T23:01:42.284Z,102908.88
2023-02-05T23:04:11.325Z,102914.04
2023-02-05T23:06:42.675Z,102910.80
2023-02-05T23:09:17.249Z,102907.77
2023-02-05T23:11:46.606Z,102906.13
2023-02-05T23:14:17.553Z,102908.30
2023-02-05T23:16:47.500Z,102910.59
2023-02-05T23:19:19.327Z,102912.08
2023-02-05T23:21:48.247Z,102909.93
2023-02-05T23:24:17.331Z,102902.16
2023-02-05T23:26:48.256Z,102904.52
2023-02-05T23:29:17.817Z,102909.35
2023-02-05T23:31:46.800Z,102904.60
2023-02-05T23:34:15.581Z,102900.85
2023-02-05T23:36:44.091Z,102896.98
2023-02-05T23:39:12.615Z,102894.41
2023-02-05T23:41:41.216Z,102895.45
2023-02-05T23:44:19.004Z,102892.16
2023-02-05T23:46:49.019Z,102888.18
2023-02-05T23:49:21.267Z,102886.43
2023-02-05T23:51:54.874Z,102888.52
2023-02-05T23:54:24.340Z,102887.30
2023-02-05T23:56:52.795Z,102885.15
2023-02-05T23:59:21.340Z,102878.64
